Friday, September 21, 2018, 9:40 PM EDT
Back to Local

KGON, Groton/new London Airport

Location: Groton, CT, United States Lat: 41.333
Local Time: 9:40 PM EDT ( 1:40 GMT) Lon: -72.05
Time Zone: US/Eastern Elev: 9 ft

Show me the last for .
Show Decoded

2018-09-21 20:56 METAR KGON 220056Z 19015KT 10SM OVC048 21/18 A3002 RMK AO2 SLP167 T02110178 =
2018-09-21 19:56 METAR KGON 212356Z 20015KT 10SM OVC046 21/17 A3004 RMK AO2 SLP171 T02110172
                 10211 20200 58023 =
2018-09-21 18:56 METAR KGON 212256Z 19014KT 10SM OVC044 21/17 A3006 RMK AO2 SLP180 T02060167 =
2018-09-21 17:56 METAR KGON 212156Z 19013KT 10SM OVC045 21/16 A3009 RMK AO2 SLP188 T02060161 =
2018-09-21 17:03 METAR KGON 212103Z 19014KT 10SM OVC047 21/16 A3010 RMK AO2 T02060161 =
2018-09-21 16:56 METAR KGON 212056Z 18013KT 10SM BKN021 OVC047 21/16 A3011 RMK AO2 SLP194
                 T02060161 58028 =
2018-09-21 15:56 METAR KGON 211956Z 19015KT 10SM BKN021 OVC047 20/16 A3014 RMK AO2 SLP206
                 T02000156 =
2018-09-21 15:32 METAR KGON 211932Z 17013KT 10SM BKN021 OVC047 20/16 A3015 RMK AO2 T02000161 =
2018-09-21 14:56 METAR KGON 211856Z 18013KT 10SM OVC049 21/16 A3016 RMK AO2 SLP212 T02060156 =
2018-09-21 13:56 METAR KGON 211756Z 18012KT 10SM SCT023 BKN065 21/15 A3019 RMK AO2 SLP223
                 T02060150 10211 20183 56015 =
2018-09-21 12:56 METAR KGON 211656Z 17010KT 10SM SCT023 BKN065 21/15 A3021 RMK AO2 SLP230
                 T02060150 =
2018-09-21 12:53 METAR KGON 211653Z 16011KT 10SM SCT023 BKN065 21/15 A3021 RMK AO2 =
2018-09-21 12:44 METAR KGON 211644Z 17011KT 10SM BKN024 BKN065 21/15 A3021 RMK AO2 T02060150 =
2018-09-21 12:37 METAR KGON 211637Z 16012KT 10SM SCT024 OVC065 21/15 A3021 RMK AO2 T02060150 =
2018-09-21 12:19 METAR KGON 211619Z 15010KT 10SM BKN025 OVC060 20/14 A3022 RMK AO2 T02000144 =
2018-09-21 11:56 METAR KGON 211556Z 14011KT 10SM FEW025 BKN060 20/14 A3023 RMK AO2 SLP237
                 T02000144 =
2018-09-21 11:53 METAR KGON 211553Z 15012KT 10SM FEW025 BKN060 20/14 A3023 RMK AO2 =
2018-09-21 11:06 METAR KGON 211506Z 15010KT 10SM BKN025 20/14 A3026 RMK AO2 T02000139 =
2018-09-21 10:56 METAR KGON 211456Z 15010KT 10SM SCT023 20/14 A3026 RMK AO2 SLP246 T02000139
                 58011 =
2018-09-21 09:56 METAR KGON 211356Z 14010KT 10SM FEW023 OVC060 19/14 A3027 RMK AO2 SLP250
                 T01890139 =
2018-09-21 09:33 METAR KGON 211333Z 13010KT 10SM FEW023 OVC060 18/13 A3028 RMK AO2 T01830133 =
2018-09-21 09:15 METAR KGON 211315Z 13011KT 10SM BKN023 OVC060 19/13 A3029 RMK AO2 T01890133 =
2018-09-21 08:56 METAR KGON 211256Z 13009KT 10SM SCT022 19/14 A3029 RMK AO2 SLP255 T01890139 =
2018-09-21 07:56 METAR KGON 211156Z 14009KT 10SM CLR 18/13 A3029 RMK AO2 SLP257 T01830133 10183
                 20172 50007 =
2018-09-21 06:56 METAR KGON 211056Z COR 11007KT 10SM SCT022 SCT060 17/13 A3029 RMK AO2 SLP257
                 T01720133 =
2018-09-21 05:56 METAR KGON 210956Z AUTO 12007KT 10SM SCT029 OVC038 17/14 A3028 RMK AO2 SLP253
                 T01720139 =
2018-09-21 04:56 METAR KGON 210856Z AUTO 12008KT 10SM OVC035 18/14 A3027 RMK AO2 SLP250 T01780139
                 55001 =
2018-09-21 03:56 METAR KGON 210756Z AUTO 12006KT 10SM OVC034 18/14 A3027 RMK AO2 SLP249 T01780139
                 =
2018-09-21 02:56 METAR KGON 210656Z AUTO 11009KT 10SM SCT033 17/14 A3026 RMK AO2 SLP247 T01720139
                 =
2018-09-21 02:30 METAR KGON 210630Z AUTO 12009KT 10SM FEW021 BKN030 BKN036 18/14 A3027 RMK AO2
                 T01780139 =
2018-09-21 01:56 METAR KGON 210556Z AUTO 12009KT 10SM BKN017 OVC025 18/14 A3027 RMK AO2 SLP251
                 T01780144 10183 20172 55003 =
2018-09-21 01:27 METAR KGON 210527Z AUTO 11007KT 10SM BKN019 18/15 A3028 RMK AO2 T01780150 =
2018-09-21 00:56 METAR KGON 210456Z AUTO 13012KT 10SM FEW016 SCT023 SCT036 18/15 A3026 RMK AO2
                 SLP248 T01780150 402280144 =
2018-09-20 23:56 METAR KGON 210356Z AUTO 07005KT 10SM SCT017 BKN022 OVC055 17/14 A3028 RMK AO2
                 SLP253 T01720139 =
2018-09-20 22:56 METAR KGON 210256Z AUTO 08005KT 10SM OVC055 17/14 A3029 RMK AO2 SLP256 T01720139
                 52010 =
2018-09-20 21:56 METAR KGON 210156Z 05008KT 10SM FEW039 OVC048 17/14 A3028 RMK AO2 SLP253
                 T01720139 =

Support USWX by starting your Amazon purchase here.